createdAt,value
2023-05-02T00:01:12.209Z,6.82
2023-05-02T00:03:44.683Z,6.75
2023-05-02T00:06:13.336Z,6.60
2023-05-02T00:08:42.071Z,6.73
2023-05-02T00:11:10.444Z,5.80
2023-05-02T00:13:38.820Z,7.53
2023-05-02T00:16:07.729Z,6.05
2023-05-02T00:18:37.199Z,7.13
2023-05-02T00:21:06.421Z,5.97
2023-05-02T00:23:34.906Z,6.32
2023-05-02T00:26:03.364Z,6.43
2023-05-02T00:28:33.414Z,6.07
2023-05-02T00:31:02.272Z,6.15
2023-05-02T00:33:30.659Z,5.60
2023-05-02T00:36:00.160Z,7.15
2023-05-02T00:38:28.646Z,5.63
2023-05-02T00:40:59.548Z,7.07
2023-05-02T00:43:32.068Z,6.30
2023-05-02T00:46:00.783Z,6.63
2023-05-02T00:48:29.938Z,7.47
2023-05-02T00:50:59.925Z,5.07
2023-05-02T00:53:28.513Z,5.90
2023-05-02T00:55:57.327Z,5.45
2023-05-02T00:58:25.896Z,7.63
2023-05-02T01:01:04.193Z,6.32
2023-05-02T01:03:41.443Z,5.45
2023-05-02T01:06:23.747Z,5.85
2023-05-02T01:08:57.207Z,5.90
2023-05-02T01:11:33.175Z,5.27
2023-05-02T01:14:06.430Z,5.30
2023-05-02T01:16:38.530Z,7.88
2023-05-02T01:19:11.931Z,4.88
2023-05-02T01:21:42.930Z,5.63
2023-05-02T01:24:17.121Z,5.67
2023-05-02T01:26:52.979Z,5.32
2023-05-02T01:29:24.488Z,7.03
2023-05-02T01:31:53.178Z,5.43
2023-05-02T01:34:23.764Z,5.45
2023-05-02T01:36:53.481Z,4.63
2023-05-02T01:39:25.721Z,5.25
2023-05-02T01:41:57.098Z,5.43
2023-05-02T01:44:28.399Z,6.03
2023-05-02T01:46:57.137Z,5.20
2023-05-02T01:49:29.571Z,5.13
2023-05-02T01:51:58.462Z,4.80
2023-05-02T01:54:28.722Z,5.40
2023-05-02T01:56:57.567Z,5.28
2023-05-02T01:59:28.490Z,7.97
2023-05-02T02:01:57.594Z,4.83
2023-05-02T02:04:27.722Z,7.25
2023-05-02T02:07:02.100Z,5.28
2023-05-02T02:09:33.551Z,5.72
2023-05-02T02:12:08.322Z,4.78
2023-05-02T02:14:40.637Z,5.03
2023-05-02T02:17:16.183Z,5.82
2023-05-02T02:19:44.728Z,4.72
2023-05-02T02:22:14.732Z,6.07
2023-05-02T02:24:43.202Z,5.90
2023-05-02T02:27:11.535Z,5.30
2023-05-02T02:29:41.098Z,5.88
2023-05-02T02:32:09.447Z,5.05
2023-05-02T02:34:37.971Z,5.68
2023-05-02T02:37:10.331Z,5.20
2023-05-02T02:39:49.124Z,5.10
2023-05-02T02:42:32.669Z,5.05
2023-05-02T02:45:10.302Z,6.13
2023-05-02T02:47:46.069Z,5.80
2023-05-02T02:50:21.088Z,5.65
2023-05-02T02:52:58.805Z,5.80
2023-05-02T02:55:38.112Z,5.50
2023-05-02T02:58:20.069Z,6.15
2023-05-02T03:00:50.782Z,6.63
2023-05-02T03:03:20.026Z,8.10
2023-05-02T03:05:49.109Z,6.47
2023-05-02T03:08:17.488Z,6.68
2023-05-02T03:10:46.023Z,6.63
2023-05-02T03:13:14.594Z,5.65
2023-05-02T03:16:22.988Z,6.60
2023-05-02T03:18:52.548Z,6.57
2023-05-02T03:21:21.134Z,6.15
2023-05-02T03:23:50.029Z,6.55
2023-05-02T03:26:18.868Z,5.65
2023-05-02T03:28:47.715Z,6.78
2023-05-02T03:31:21.886Z,6.70
2023-05-02T03:33:51.328Z,7.65
2023-05-02T03:36:20.753Z,6.15
2023-05-02T03:38:49.304Z,9.25
2023-05-02T03:41:18.331Z,14.88
2023-05-02T03:43:47.128Z,7.73
2023-05-02T03:46:15.623Z,10.30
2023-05-02T03:48:47.262Z,8.07
2023-05-02T03:51:18.995Z,6.82
2023-05-02T03:53:53.539Z,6.43
2023-05-02T03:56:22.069Z,6.60
2023-05-02T03:59:01.405Z,6.57
2023-05-02T04:01:29.944Z,7.97
2023-05-02T04:03:59.834Z,6.75
2023-05-02T04:06:33.160Z,8.30
2023-05-02T04:09:06.852Z,9.43
2023-05-02T04:11:43.472Z,6.82
2023-05-02T04:14:14.102Z,6.90
2023-05-02T04:16:49.315Z,6.80
2023-05-02T04:19:21.237Z,8.40
2023-05-02T04:21:50.499Z,9.00
2023-05-02T04:24:20.682Z,8.10
2023-05-02T04:26:49.115Z,7.03
2023-05-02T04:29:17.550Z,9.07
2023-05-02T04:31:46.288Z,7.53
2023-05-02T04:34:16.736Z,7.30
2023-05-02T04:36:47.316Z,8.07
2023-05-02T04:39:22.159Z,8.30
2023-05-02T04:42:06.950Z,9.60
2023-05-02T04:44:41.846Z,10.18
2023-05-02T04:47:10.852Z,7.80
2023-05-02T04:49:40.984Z,10.50
2023-05-02T04:52:09.774Z,9.40
2023-05-02T04:54:40.119Z,9.65
2023-05-02T04:57:10.168Z,9.65
2023-05-02T04:59:44.150Z,8.57
2023-05-02T05:02:13.609Z,8.93
2023-05-02T05:04:58.607Z,8.40
2023-05-02T05:07:27.477Z,8.45
2023-05-02T05:09:59.336Z,8.30
2023-05-02T05:12:31.686Z,10.90
2023-05-02T05:15:00.075Z,8.77
2023-05-02T05:17:30.250Z,9.80
2023-05-02T05:19:59.672Z,9.77
2023-05-02T05:22:28.633Z,11.85
2023-05-02T05:25:01.397Z,9.90
2023-05-02T05:27:35.356Z,9.25
2023-05-02T05:30:04.485Z,9.05
2023-05-02T05:32:35.556Z,17.20
2023-05-02T05:35:11.519Z,15.38
2023-05-02T05:37:41.872Z,11.07
2023-05-02T05:40:14.550Z,8.38
2023-05-02T05:42:46.596Z,9.30
2023-05-02T05:45:21.614Z,8.13
2023-05-02T05:47:50.227Z,9.52
2023-05-02T05:50:19.470Z,10.03
2023-05-02T05:52:48.346Z,10.15
2023-05-02T05:55:17.986Z,9.65
2023-05-02T05:57:46.347Z,11.73
2023-05-02T06:00:16.824Z,24.23
2023-05-02T06:02:48.491Z,24.90
2023-05-02T06:05:26.372Z,10.65
2023-05-02T06:07:55.156Z,9.30
2023-05-02T06:10:24.716Z,9.35
2023-05-02T06:12:54.026Z,10.40
2023-05-02T06:15:26.941Z,9.33
2023-05-02T06:17:55.621Z,9.80
2023-05-02T06:20:24.139Z,9.15
2023-05-02T06:22:52.618Z,9.23
2023-05-02T06:25:21.058Z,10.65
2023-05-02T06:27:53.229Z,10.13
2023-05-02T06:30:21.637Z,10.32
2023-05-02T06:32:50.108Z,9.30
2023-05-02T06:35:19.761Z,9.43
2023-05-02T06:37:48.253Z,10.48
2023-05-02T06:40:16.802Z,11.90
2023-05-02T06:42:45.383Z,10.38
2023-05-02T06:45:15.009Z,8.80
2023-05-02T06:47:46.631Z,9.15
2023-05-02T06:50:15.074Z,12.00
2023-05-02T06:52:43.534Z,11.90
2023-05-02T06:55:12.177Z,11.07
2023-05-02T06:57:41.727Z,11.18
2023-05-02T07:00:14.265Z,11.43
2023-05-02T07:02:43.965Z,10.30
2023-05-02T07:05:12.365Z,9.87
2023-05-02T07:07:42.925Z,11.95
2023-05-02T07:10:12.223Z,11.40
2023-05-02T07:12:40.882Z,10.73
2023-05-02T07:15:10.313Z,11.48
2023-05-02T07:17:38.982Z,10.57
2023-05-02T07:20:10.257Z,11.43
2023-05-02T07:22:38.680Z,11.90
2023-05-02T07:25:07.673Z,9.85
2023-05-02T07:27:37.177Z,10.60
2023-05-02T07:30:08.927Z,14.60
2023-05-02T07:32:37.417Z,13.95
2023-05-02T07:35:06.027Z,12.27
2023-05-02T07:37:36.467Z,10.95
2023-05-02T07:40:09.442Z,11.57
2023-05-02T07:42:37.895Z,12.00
2023-05-02T07:45:06.761Z,11.95
2023-05-02T07:47:35.251Z,12.30
2023-05-02T07:50:04.621Z,12.77
2023-05-02T07:52:33.215Z,14.52
2023-05-02T07:55:02.691Z,12.20
2023-05-02T07:57:31.113Z,11.32
2023-05-02T08:00:00.092Z,12.85
2023-05-02T08:02:29.035Z,12.43
2023-05-02T08:05:01.837Z,11.98
2023-05-02T08:07:30.532Z,12.37
2023-05-02T08:09:59.193Z,13.82
2023-05-02T08:12:29.063Z,13.32
2023-05-02T08:14:57.483Z,13.38
2023-05-02T08:17:25.991Z,13.18
2023-05-02T08:19:54.368Z,13.83
2023-05-02T08:22:22.843Z,12.85
2023-05-02T08:24:51.191Z,13.77
2023-05-02T08:27:19.607Z,13.40
2023-05-02T08:29:49.008Z,13.13
2023-05-02T08:32:17.457Z,10.53
2023-05-02T08:34:47.425Z,12.30
2023-05-02T08:37:15.788Z,11.35
2023-05-02T08:39:50.310Z,12.18
2023-05-02T08:42:20.654Z,12.18
2023-05-02T08:44:51.499Z,11.93
2023-05-02T08:47:21.692Z,12.38
2023-05-02T08:49:54.781Z,12.32
2023-05-02T08:52:26.032Z,12.02
2023-05-02T08:54:55.950Z,11.93
2023-05-02T08:57:24.320Z,12.37
2023-05-02T08:59:53.840Z,11.88
2023-05-02T09:02:38.848Z,12.52
2023-05-02T09:05:08.915Z,12.77
2023-05-02T09:07:46.303Z,12.38
2023-05-02T09:10:14.930Z,12.50
2023-05-02T09:12:43.551Z,12.85
2023-05-02T09:15:16.402Z,13.60
2023-05-02T09:17:47.827Z,11.55
2023-05-02T09:20:17.519Z,13.23
2023-05-02T09:22:53.112Z,14.07
2023-05-02T09:25:21.601Z,12.68
2023-05-02T09:27:54.443Z,11.85
2023-05-02T09:30:25.710Z,11.70
2023-05-02T09:32:55.797Z,15.57
2023-05-02T09:35:24.885Z,14.10
2023-05-02T09:37:54.513Z,13.88
2023-05-02T09:40:23.358Z,12.35
2023-05-02T09:42:51.988Z,18.10
2023-05-02T09:45:26.015Z,13.27
2023-05-02T09:47:54.742Z,16.00
2023-05-02T09:50:36.003Z,12.50
2023-05-02T09:53:06.475Z,12.57
2023-05-02T09:55:34.834Z,12.23
2023-05-02T09:58:03.480Z,13.43
2023-05-02T10:00:44.244Z,12.40
2023-05-02T10:03:16.725Z,13.23
2023-05-02T10:05:49.870Z,12.63
2023-05-02T10:08:20.814Z,14.82
2023-05-02T10:10:53.460Z,14.32
2023-05-02T10:13:24.394Z,14.43
2023-05-02T10:16:02.996Z,13.05
2023-05-02T10:18:42.215Z,13.88
2023-05-02T10:21:12.628Z,11.88
2023-05-02T10:23:44.415Z,33.47
2023-05-02T10:26:16.841Z,12.23
2023-05-02T10:28:45.947Z,14.38
2023-05-02T10:31:17.636Z,13.48
2023-05-02T10:33:48.858Z,15.18
2023-05-02T10:36:16.935Z,14.57
2023-05-02T10:38:45.578Z,15.90
2023-05-02T10:41:19.177Z,12.80
2023-05-02T10:43:49.070Z,11.93
2023-05-02T10:46:35.994Z,12.25
2023-05-02T10:49:05.974Z,12.57
2023-05-02T10:51:36.229Z,14.23
2023-05-02T10:54:23.552Z,12.32
2023-05-02T10:57:12.389Z,11.60
2023-05-02T10:59:41.412Z,12.15
2023-05-02T11:02:43.182Z,11.57
2023-05-02T11:05:12.709Z,12.03
2023-05-02T11:07:41.206Z,11.50
2023-05-02T11:10:27.443Z,11.65
2023-05-02T11:12:57.172Z,11.68
2023-05-02T11:15:57.042Z,10.20
2023-05-02T11:18:25.531Z,10.50
2023-05-02T11:21:28.885Z,13.05
2023-05-02T11:24:30.173Z,10.30
2023-05-02T11:27:31.972Z,9.65
2023-05-02T11:30:01.577Z,11.45
2023-05-02T11:33:13.066Z,10.83
2023-05-02T11:35:43.976Z,10.63
2023-05-02T11:38:15.194Z,9.60
2023-05-02T11:40:57.746Z,10.80
2023-05-02T11:43:29.255Z,10.05
2023-05-02T11:46:00.619Z,10.37
2023-05-02T11:48:29.529Z,10.35
2023-05-02T11:51:02.250Z,12.60
2023-05-02T11:53:32.144Z,9.85
2023-05-02T11:56:02.070Z,11.32
2023-05-02T11:58:33.929Z,9.80
2023-05-02T12:01:14.142Z,9.05
2023-05-02T12:03:42.781Z,10.02
2023-05-02T12:06:12.793Z,9.05
2023-05-02T12:08:43.929Z,11.20
2023-05-02T12:11:14.593Z,8.83
2023-05-02T12:13:47.819Z,9.82
2023-05-02T12:16:16.738Z,10.57
2023-05-02T12:18:45.425Z,9.55
2023-05-02T12:21:14.095Z,9.70
2023-05-02T12:23:43.869Z,8.73
2023-05-02T12:26:18.914Z,8.35
2023-05-02T12:28:50.565Z,9.43
2023-05-02T12:31:19.261Z,8.93
2023-05-02T12:33:50.300Z,8.88
2023-05-02T12:36:19.174Z,8.03
2023-05-02T12:38:54.272Z,9.93
2023-05-02T12:41:34.342Z,6.25
2023-05-02T12:44:02.982Z,7.43
2023-05-02T12:46:31.935Z,8.95
2023-05-02T12:49:05.509Z,8.67
2023-05-02T12:51:34.707Z,6.38
2023-05-02T12:54:05.054Z,7.38
2023-05-02T12:56:40.530Z,7.63
2023-05-02T12:59:09.761Z,6.65
2023-05-02T13:01:38.353Z,7.00
2023-05-02T13:04:07.092Z,7.68
2023-05-02T13:06:37.978Z,6.90
2023-05-02T13:09:07.869Z,6.60
2023-05-02T13:11:36.514Z,7.70
2023-05-02T13:14:05.993Z,6.93
2023-05-02T13:16:36.749Z,6.78
2023-05-02T13:19:05.360Z,8.07
2023-05-02T13:21:33.721Z,6.88
2023-05-02T13:24:04.215Z,7.80
2023-05-02T13:26:33.609Z,6.50
2023-05-02T13:29:04.555Z,8.90
2023-05-02T13:31:33.014Z,5.60
2023-05-02T13:34:01.436Z,7.82
2023-05-02T13:36:29.827Z,8.13
2023-05-02T13:38:58.274Z,8.50
2023-05-02T13:41:26.677Z,6.25
2023-05-02T13:43:56.921Z,6.82
2023-05-02T13:46:25.327Z,7.90
2023-05-02T13:48:53.703Z,8.13
2023-05-02T13:51:22.116Z,9.53
2023-05-02T13:53:50.390Z,6.80
2023-05-02T13:56:18.869Z,5.75
2023-05-02T13:58:52.944Z,7.05
2023-05-02T14:01:22.398Z,8.13
2023-05-02T14:03:50.895Z,6.00
2023-05-02T14:06:21.369Z,7.18
2023-05-02T14:08:51.221Z,6.22
2023-05-02T14:11:19.614Z,6.35
2023-05-02T14:13:48.040Z,6.65
2023-05-02T14:16:16.450Z,7.97
2023-05-02T14:18:46.694Z,6.30
2023-05-02T14:21:15.058Z,7.00
2023-05-02T14:23:43.484Z,6.00
2023-05-02T14:26:12.820Z,6.28
2023-05-02T14:28:41.234Z,5.60
2023-05-02T14:31:09.541Z,7.93
2023-05-02T14:33:37.909Z,6.75
2023-05-02T14:36:07.603Z,5.93
2023-05-02T14:38:36.014Z,6.38
2023-05-02T14:41:04.399Z,8.97
2023-05-02T14:43:33.697Z,11.15
2023-05-02T14:46:02.697Z,6.28
2023-05-02T14:48:31.032Z,6.25
2023-05-02T14:51:00.711Z,7.10
2023-05-02T14:53:30.045Z,6.33
2023-05-02T14:55:58.419Z,10.07
2023-05-02T14:58:26.742Z,5.93
2023-05-02T15:00:55.126Z,7.05
2023-05-02T15:03:23.594Z,6.95
2023-05-02T15:05:52.190Z,5.40
2023-05-02T15:08:23.175Z,5.13
2023-05-02T15:10:52.682Z,5.82
2023-05-02T15:13:21.140Z,6.95
2023-05-02T15:15:49.541Z,6.93
2023-05-02T15:18:17.967Z,7.73
2023-05-02T15:20:46.023Z,5.65
2023-05-02T15:23:14.523Z,7.88
2023-05-02T15:25:42.921Z,6.68
2023-05-02T15:28:12.538Z,6.47
2023-05-02T15:30:40.955Z,6.23
2023-05-02T15:33:09.435Z,5.85
2023-05-02T15:35:37.827Z,6.22
2023-05-02T15:38:06.633Z,6.00
2023-05-02T15:40:34.721Z,7.30
2023-05-02T15:43:08.800Z,6.60
2023-05-02T15:45:39.963Z,10.40
2023-05-02T15:48:08.390Z,7.47
2023-05-02T15:50:36.807Z,6.95
2023-05-02T15:53:09.485Z,7.47
2023-05-02T15:55:37.963Z,6.80
2023-05-02T15:58:06.687Z,7.07
2023-05-02T16:00:35.116Z,8.73
2023-05-02T16:03:07.257Z,7.75
2023-05-02T16:05:35.892Z,7.50
2023-05-02T16:08:04.430Z,7.37
2023-05-02T16:10:32.836Z,8.93
2023-05-02T16:13:01.167Z,7.43
2023-05-02T16:15:30.554Z,7.70
2023-05-02T16:18:09.516Z,8.95
2023-05-02T16:20:43.541Z,7.43
2023-05-02T16:23:12.140Z,7.35
2023-05-02T16:25:43.282Z,6.15
2023-05-02T16:28:14.471Z,8.20
2023-05-02T16:30:44.411Z,6.63
2023-05-02T16:33:15.229Z,7.63
2023-05-02T16:35:47.128Z,8.63
2023-05-02T16:38:19.220Z,7.10
2023-05-02T16:40:50.316Z,7.68
2023-05-02T16:43:21.648Z,9.13
2023-05-02T16:46:06.564Z,7.20
2023-05-02T16:48:36.958Z,7.75
2023-05-02T16:51:06.998Z,7.65
2023-05-02T16:53:35.830Z,7.10
2023-05-02T16:56:04.243Z,9.65
2023-05-02T16:58:32.568Z,6.97
2023-05-02T17:01:01.755Z,5.72
2023-05-02T17:03:30.165Z,6.88
2023-05-02T17:06:13.466Z,6.68
2023-05-02T17:08:43.398Z,8.77
2023-05-02T17:11:13.236Z,5.73
2023-05-02T17:13:45.312Z,6.20
2023-05-02T17:16:13.817Z,6.72
2023-05-02T17:18:42.364Z,7.20
2023-05-02T17:21:12.004Z,6.78
2023-05-02T17:23:43.085Z,6.77
2023-05-02T17:26:15.558Z,7.60
2023-05-02T17:28:45.021Z,6.85
2023-05-02T17:31:15.478Z,7.55
2023-05-02T17:33:44.020Z,6.30
2023-05-02T17:36:15.483Z,5.83
2023-05-02T17:38:46.279Z,7.30
2023-05-02T17:41:15.362Z,8.38
2023-05-02T17:43:43.673Z,6.18
2023-05-02T17:46:12.396Z,5.88
2023-05-02T17:48:44.706Z,6.00
2023-05-02T17:51:15.617Z,6.45
2023-05-02T17:53:44.132Z,6.25
2023-05-02T17:56:21.444Z,5.75
2023-05-02T17:59:02.216Z,6.47
2023-05-02T18:01:35.947Z,6.03
2023-05-02T18:04:06.811Z,5.93
2023-05-02T18:06:37.827Z,6.68
2023-05-02T18:09:09.109Z,7.68
2023-05-02T18:11:40.326Z,7.35
2023-05-02T18:14:08.803Z,6.27
2023-05-02T18:16:37.230Z,6.85
2023-05-02T18:19:06.070Z,7.90
2023-05-02T18:21:37.670Z,8.43
2023-05-02T18:24:14.139Z,6.68
2023-05-02T18:26:42.921Z,7.83
2023-05-02T18:29:11.344Z,7.07
2023-05-02T18:31:40.593Z,6.40
2023-05-02T18:34:09.413Z,7.65
2023-05-02T18:36:41.683Z,7.35
2023-05-02T18:39:28.948Z,7.57
2023-05-02T18:42:00.119Z,6.45
2023-05-02T18:44:28.715Z,7.75
2023-05-02T18:47:06.161Z,8.20
2023-05-02T18:49:46.395Z,6.60
2023-05-02T18:52:16.636Z,7.63
2023-05-02T18:54:49.435Z,6.93
2023-05-02T18:57:17.853Z,7.13
2023-05-02T18:59:46.234Z,8.48
2023-05-02T19:02:16.665Z,7.80
2023-05-02T19:04:45.220Z,7.07
2023-05-02T19:07:13.681Z,6.40
2023-05-02T19:09:42.265Z,7.22
2023-05-02T19:12:11.771Z,7.43
2023-05-02T19:14:40.932Z,8.02
2023-05-02T19:17:12.274Z,7.73
2023-05-02T19:19:43.575Z,8.75
2023-05-02T19:22:13.688Z,6.75
2023-05-02T19:24:42.517Z,6.72
2023-05-02T19:27:12.210Z,7.82
2023-05-02T19:29:46.343Z,7.47
2023-05-02T19:32:15.955Z,9.23
2023-05-02T19:34:44.425Z,9.98
2023-05-02T19:37:12.823Z,9.35
2023-05-02T19:39:41.282Z,7.30
2023-05-02T19:42:09.760Z,8.13
2023-05-02T19:44:39.185Z,25.52
2023-05-02T19:47:07.743Z,33.95
2023-05-02T19:49:36.331Z,27.17
2023-05-02T19:52:04.796Z,23.17
2023-05-02T19:54:33.332Z,14.20
2023-05-02T19:57:02.792Z,17.15
2023-05-02T19:59:31.203Z,9.55
2023-05-02T20:02:00.893Z,17.60
2023-05-02T20:04:29.242Z,54.63
2023-05-02T20:06:57.712Z,20.97
2023-05-02T20:09:26.234Z,17.73
2023-05-02T20:11:59.329Z,17.27
2023-05-02T20:14:27.891Z,38.63
2023-05-02T20:17:01.748Z,59.45
2023-05-02T20:19:32.735Z,14.53
2023-05-02T20:22:03.171Z,25.98
2023-05-02T20:24:31.744Z,46.88
2023-05-02T20:27:00.125Z,44.97
2023-05-02T20:29:28.508Z,27.67
2023-05-02T20:31:57.101Z,18.17
2023-05-02T20:34:25.577Z,55.20
2023-05-02T20:36:55.130Z,28.23
2023-05-02T20:39:23.976Z,19.35
2023-05-02T20:41:52.822Z,33.08
2023-05-02T20:44:22.853Z,17.47
2023-05-02T20:46:52.727Z,10.25
2023-05-02T20:49:21.324Z,23.70
2023-05-02T20:51:50.521Z,20.33
2023-05-02T20:54:21.976Z,12.27
2023-05-02T20:56:50.375Z,25.53
2023-05-02T20:59:18.996Z,22.48
2023-05-02T21:01:47.632Z,25.60
2023-05-02T21:04:16.294Z,65.15
2023-05-02T21:06:44.816Z,35.90
2023-05-02T21:09:13.432Z,36.00
2023-05-02T21:11:43.650Z,50.90
2023-05-02T21:14:12.617Z,16.25
2023-05-02T21:16:41.044Z,10.45
2023-05-02T21:19:09.506Z,9.45
2023-05-02T21:21:37.861Z,9.53
2023-05-02T21:24:06.671Z,9.05
2023-05-02T21:26:34.974Z,9.80
2023-05-02T21:29:04.455Z,12.75
2023-05-02T21:31:33.294Z,9.10
2023-05-02T21:34:02.198Z,10.67
2023-05-02T21:36:30.853Z,10.15
2023-05-02T21:38:59.247Z,10.90
2023-05-02T21:41:27.593Z,9.38
2023-05-02T21:43:55.962Z,12.40
2023-05-02T21:46:25.658Z,11.40
2023-05-02T21:48:54.212Z,10.40
2023-05-02T21:51:22.505Z,10.23
2023-05-02T21:53:50.974Z,10.13
2023-05-02T21:56:19.473Z,10.55
2023-05-02T21:58:49.678Z,12.80
2023-05-02T22:01:18.217Z,10.48
2023-05-02T22:03:47.669Z,9.98
2023-05-02T22:06:16.289Z,9.55
2023-05-02T22:08:45.045Z,11.30
2023-05-02T22:11:15.281Z,10.07
2023-05-02T22:13:43.781Z,9.82
2023-05-02T22:16:12.799Z,11.15
2023-05-02T22:18:42.455Z,11.18
2023-05-02T22:21:13.357Z,9.82
2023-05-02T22:23:42.074Z,13.10
2023-05-02T22:26:10.490Z,9.25
2023-05-02T22:28:38.954Z,9.20
2023-05-02T22:31:07.445Z,9.77
2023-05-02T22:33:35.796Z,10.02
2023-05-02T22:36:04.300Z,10.37
2023-05-02T22:38:33.813Z,11.45
2023-05-02T22:41:02.390Z,11.48
2023-05-02T22:43:31.118Z,10.95
2023-05-02T22:45:59.968Z,10.07
2023-05-02T22:48:28.043Z,10.90
2023-05-02T22:50:56.636Z,10.38
2023-05-02T22:53:26.186Z,15.77
2023-05-02T22:55:56.139Z,11.77
2023-05-02T22:58:24.518Z,11.27
2023-05-02T23:00:52.982Z,10.97
2023-05-02T23:03:21.892Z,10.25
2023-05-02T23:05:50.387Z,11.02
2023-05-02T23:08:18.866Z,10.73
2023-05-02T23:10:47.356Z,12.23
2023-05-02T23:13:17.029Z,12.03
2023-05-02T23:15:45.656Z,12.63
2023-05-02T23:18:14.325Z,11.32
2023-05-02T23:20:42.688Z,10.07
2023-05-02T23:23:11.198Z,10.27
2023-05-02T23:25:39.756Z,11.30
2023-05-02T23:28:08.182Z,11.80
2023-05-02T23:30:39.486Z,11.68
2023-05-02T23:33:08.137Z,10.30
2023-05-02T23:35:36.957Z,11.52
2023-05-02T23:38:08.057Z,12.03
2023-05-02T23:40:36.628Z,10.45
2023-05-02T23:43:07.585Z,11.45
2023-05-02T23:45:36.293Z,11.00
2023-05-02T23:48:06.049Z,16.98
2023-05-02T23:50:34.627Z,15.30
2023-05-02T23:53:03.294Z,12.70
2023-05-02T23:55:31.821Z,12.80
2023-05-02T23:58:25.135Z,14.65
